sensor_id;sensor_type;location;lat;lon;timestamp;P1;durP1;ratioP1;P2;durP2;ratioP2
56728;SDS011;42612;52.232;7.560;2023-07-09T00:01:50;3.40;;;2.97;;
56728;SDS011;42612;52.232;7.560;2023-07-09T00:04:17;3.95;;;3.28;;
56728;SDS011;42612;52.232;7.560;2023-07-09T00:06:43;5.47;;;3.15;;
56728;SDS011;42612;52.232;7.560;2023-07-09T00:09:16;3.20;;;2.92;;
56728;SDS011;42612;52.232;7.560;2023-07-09T00:11:45;3.75;;;2.92;;
56728;SDS011;42612;52.232;7.560;2023-07-09T00:14:12;3.40;;;2.85;;
56728;SDS011;42612;52.232;7.560;2023-07-09T00:16:59;5.93;;;3.20;;
56728;SDS011;42612;52.232;7.560;2023-07-09T00:21:54;4.53;;;3.28;;
56728;SDS011;42612;52.232;7.560;2023-07-09T00:24:20;3.78;;;2.90;;
56728;SDS011;42612;52.232;7.560;2023-07-09T00:26:45;3.30;;;2.90;;
56728;SDS011;42612;52.232;7.560;2023-07-09T00:29:15;3.60;;;3.17;;
56728;SDS011;42612;52.232;7.560;2023-07-09T00:31:42;3.50;;;2.97;;
56728;SDS011;42612;52.232;7.560;2023-07-09T00:34:13;4.72;;;3.50;;
56728;SDS011;42612;52.232;7.560;2023-07-09T00:36:42;4.38;;;3.53;;
56728;SDS011;42612;52.232;7.560;2023-07-09T00:39:21;3.80;;;3.17;;
56728;SDS011;42612;52.232;7.560;2023-07-09T00:41:48;4.50;;;3.17;;
56728;SDS011;42612;52.232;7.560;2023-07-09T00:44:31;6.55;;;3.60;;
56728;SDS011;42612;52.232;7.560;2023-07-09T00:49:28;6.00;;;3.35;;
56728;SDS011;42612;52.232;7.560;2023-07-09T00:52:01;3.70;;;3.15;;
56728;SDS011;42612;52.232;7.560;2023-07-09T00:54:44;4.60;;;3.28;;
56728;SDS011;42612;52.232;7.560;2023-07-09T00:59:42;5.93;;;2.90;;
56728;SDS011;42612;52.232;7.560;2023-07-09T01:02:13;6.38;;;3.28;;
56728;SDS011;42612;52.232;7.560;2023-07-09T01:04:40;3.70;;;3.30;;
56728;SDS011;42612;52.232;7.560;2023-07-09T01:07:06;4.97;;;3.40;;
56728;SDS011;42612;52.232;7.560;2023-07-09T01:09:33;5.55;;;3.38;;
56728;SDS011;42612;52.232;7.560;2023-07-09T01:12:05;6.38;;;3.70;;
56728;SDS011;42612;52.232;7.560;2023-07-09T01:14:34;4.63;;;3.63;;
56728;SDS011;42612;52.232;7.560;2023-07-09T01:17:01;3.40;;;3.10;;
56728;SDS011;42612;52.232;7.560;2023-07-09T01:19:35;4.50;;;3.45;;
56728;SDS011;42612;52.232;7.560;2023-07-09T01:27:31;5.10;;;3.50;;
56728;SDS011;42612;52.232;7.560;2023-07-09T01:30:05;4.85;;;3.38;;
56728;SDS011;42612;52.232;7.560;2023-07-09T01:32:41;4.00;;;3.42;;
56728;SDS011;42612;52.232;7.560;2023-07-09T01:35:11;4.22;;;3.50;;
56728;SDS011;42612;52.232;7.560;2023-07-09T01:37:39;7.70;;;3.42;;
56728;SDS011;42612;52.232;7.560;2023-07-09T01:40:07;10.20;;;4.00;;
56728;SDS011;42612;52.232;7.560;2023-07-09T01:42:34;6.13;;;3.50;;
56728;SDS011;42612;52.232;7.560;2023-07-09T01:45:03;4.45;;;3.30;;
56728;SDS011;42612;52.232;7.560;2023-07-09T01:47:30;7.57;;;3.58;;
56728;SDS011;42612;52.232;7.560;2023-07-09T01:49:56;10.17;;;4.00;;
56728;SDS011;42612;52.232;7.560;2023-07-09T01:52:28;4.90;;;3.78;;
56728;SDS011;42612;52.232;7.560;2023-07-09T01:54:56;6.25;;;3.78;;
56728;SDS011;42612;52.232;7.560;2023-07-09T01:57:23;6.60;;;3.38;;
56728;SDS011;42612;52.232;7.560;2023-07-09T02:00:00;4.30;;;3.25;;
56728;SDS011;42612;52.232;7.560;2023-07-09T02:02:30;6.75;;;4.20;;
56728;SDS011;42612;52.232;7.560;2023-07-09T02:04:57;4.28;;;3.50;;
56728;SDS011;42612;52.232;7.560;2023-07-09T02:07:23;4.67;;;3.57;;
56728;SDS011;42612;52.232;7.560;2023-07-09T02:09:50;5.80;;;4.15;;
56728;SDS011;42612;52.232;7.560;2023-07-09T02:12:16;5.80;;;3.50;;
56728;SDS011;42612;52.232;7.560;2023-07-09T02:14:43;4.53;;;4.00;;
56728;SDS011;42612;52.232;7.560;2023-07-09T02:17:10;4.90;;;3.67;;
56728;SDS011;42612;52.232;7.560;2023-07-09T02:19:39;5.25;;;4.07;;
56728;SDS011;42612;52.232;7.560;2023-07-09T02:22:05;14.75;;;4.20;;
56728;SDS011;42612;52.232;7.560;2023-07-09T02:24:31;6.93;;;3.88;;
56728;SDS011;42612;52.232;7.560;2023-07-09T02:26:58;9.75;;;4.38;;
56728;SDS011;42612;52.232;7.560;2023-07-09T02:29:27;20.27;;;4.75;;
56728;SDS011;42612;52.232;7.560;2023-07-09T02:31:54;12.23;;;4.43;;
56728;SDS011;42612;52.232;7.560;2023-07-09T02:34:24;17.75;;;4.03;;
56728;SDS011;42612;52.232;7.560;2023-07-09T02:36:54;7.97;;;4.05;;
56728;SDS011;42612;52.232;7.560;2023-07-09T02:39:22;4.15;;;3.70;;
56728;SDS011;42612;52.232;7.560;2023-07-09T02:41:48;6.95;;;4.00;;
56728;SDS011;42612;52.232;7.560;2023-07-09T02:44:14;15.53;;;4.70;;
56728;SDS011;42612;52.232;7.560;2023-07-09T02:46:41;10.52;;;3.90;;
56728;SDS011;42612;52.232;7.560;2023-07-09T02:49:12;9.60;;;3.47;;
56728;SDS011;42612;52.232;7.560;2023-07-09T02:51:39;15.02;;;3.72;;
56728;SDS011;42612;52.232;7.560;2023-07-09T02:54:05;8.85;;;3.60;;
56728;SDS011;42612;52.232;7.560;2023-07-09T02:56:32;14.43;;;4.70;;
56728;SDS011;42612;52.232;7.560;2023-07-09T02:58:57;7.53;;;3.40;;
56728;SDS011;42612;52.232;7.560;2023-07-09T03:01:23;8.82;;;3.60;;
56728;SDS011;42612;52.232;7.560;2023-07-09T03:03:52;10.32;;;3.88;;
56728;SDS011;42612;52.232;7.560;2023-07-09T03:06:23;9.77;;;3.60;;
56728;SDS011;42612;52.232;7.560;2023-07-09T03:11:16;3.50;;;3.20;;
56728;SDS011;42612;52.232;7.560;2023-07-09T03:13:43;4.93;;;3.28;;
56728;SDS011;42612;52.232;7.560;2023-07-09T03:16:10;5.90;;;3.28;;
56728;SDS011;42612;52.232;7.560;2023-07-09T03:18:36;5.43;;;4.10;;
56728;SDS011;42612;52.232;7.560;2023-07-09T03:21:02;6.35;;;4.18;;
56728;SDS011;42612;52.232;7.560;2023-07-09T03:23:28;4.30;;;3.45;;
56728;SDS011;42612;52.232;7.560;2023-07-09T03:25:54;6.20;;;3.78;;
56728;SDS011;42612;52.232;7.560;2023-07-09T03:28:20;4.82;;;3.83;;
56728;SDS011;42612;52.232;7.560;2023-07-09T03:30:47;6.38;;;3.33;;
56728;SDS011;42612;52.232;7.560;2023-07-09T03:33:15;4.32;;;3.15;;
56728;SDS011;42612;52.232;7.560;2023-07-09T03:38:08;10.38;;;4.40;;
56728;SDS011;42612;52.232;7.560;2023-07-09T03:40:36;5.18;;;4.00;;
56728;SDS011;42612;52.232;7.560;2023-07-09T03:43:02;6.47;;;3.90;;
56728;SDS011;42612;52.232;7.560;2023-07-09T03:45:29;5.72;;;4.13;;
56728;SDS011;42612;52.232;7.560;2023-07-09T03:47:57;11.48;;;4.75;;
56728;SDS011;42612;52.232;7.560;2023-07-09T03:50:23;6.72;;;4.25;;
56728;SDS011;42612;52.232;7.560;2023-07-09T03:52:48;5.22;;;4.30;;
56728;SDS011;42612;52.232;7.560;2023-07-09T03:55:14;8.07;;;4.03;;
56728;SDS011;42612;52.232;7.560;2023-07-09T03:57:40;7.82;;;4.10;;
56728;SDS011;42612;52.232;7.560;2023-07-09T04:00:06;10.68;;;4.60;;
56728;SDS011;42612;52.232;7.560;2023-07-09T04:02:36;16.90;;;4.95;;
56728;SDS011;42612;52.232;7.560;2023-07-09T04:05:03;16.13;;;4.50;;
56728;SDS011;42612;52.232;7.560;2023-07-09T04:07:30;5.20;;;3.40;;
56728;SDS011;42612;52.232;7.560;2023-07-09T04:09:56;7.10;;;4.13;;
56728;SDS011;42612;52.232;7.560;2023-07-09T04:12:21;6.03;;;4.45;;
56728;SDS011;42612;52.232;7.560;2023-07-09T04:14:47;8.40;;;4.80;;
56728;SDS011;42612;52.232;7.560;2023-07-09T04:17:13;8.35;;;4.57;;
56728;SDS011;42612;52.232;7.560;2023-07-09T04:19:38;6.45;;;4.30;;
56728;SDS011;42612;52.232;7.560;2023-07-09T04:22:04;8.98;;;3.90;;
56728;SDS011;42612;52.232;7.560;2023-07-09T04:24:30;11.57;;;4.20;;
56728;SDS011;42612;52.232;7.560;2023-07-09T04:26:58;13.75;;;4.80;;
56728;SDS011;42612;52.232;7.560;2023-07-09T04:29:28;8.68;;;3.88;;
56728;SDS011;42612;52.232;7.560;2023-07-09T04:31:55;13.57;;;4.85;;
56728;SDS011;42612;52.232;7.560;2023-07-09T04:34:21;12.20;;;4.03;;
56728;SDS011;42612;52.232;7.560;2023-07-09T04:36:47;5.00;;;3.83;;
56728;SDS011;42612;52.232;7.560;2023-07-09T04:39:12;41.13;;;6.70;;
56728;SDS011;42612;52.232;7.560;2023-07-09T04:41:38;23.73;;;5.10;;
56728;SDS011;42612;52.232;7.560;2023-07-09T04:44:04;11.75;;;4.30;;
56728;SDS011;42612;52.232;7.560;2023-07-09T04:46:30;20.38;;;5.07;;
56728;SDS011;42612;52.232;7.560;2023-07-09T04:48:55;14.52;;;4.43;;
56728;SDS011;42612;52.232;7.560;2023-07-09T04:51:21;10.30;;;4.40;;
56728;SDS011;42612;52.232;7.560;2023-07-09T04:53:47;15.30;;;4.07;;
56728;SDS011;42612;52.232;7.560;2023-07-09T04:56:16;26.65;;;5.35;;
56728;SDS011;42612;52.232;7.560;2023-07-09T04:58:42;8.60;;;4.17;;
56728;SDS011;42612;52.232;7.560;2023-07-09T05:01:08;9.38;;;4.40;;
56728;SDS011;42612;52.232;7.560;2023-07-09T05:03:34;9.80;;;4.72;;
56728;SDS011;42612;52.232;7.560;2023-07-09T05:06:00;8.27;;;4.50;;
56728;SDS011;42612;52.232;7.560;2023-07-09T05:08:26;5.60;;;4.35;;
56728;SDS011;42612;52.232;7.560;2023-07-09T05:10:51;5.28;;;4.35;;
56728;SDS011;42612;52.232;7.560;2023-07-09T05:13:18;6.70;;;4.63;;
56728;SDS011;42612;52.232;7.560;2023-07-09T05:15:45;8.35;;;4.78;;
56728;SDS011;42612;52.232;7.560;2023-07-09T05:18:12;18.48;;;4.90;;
56728;SDS011;42612;52.232;7.560;2023-07-09T05:20:39;6.60;;;4.40;;
56728;SDS011;42612;52.232;7.560;2023-07-09T05:23:06;6.13;;;5.00;;
56728;SDS011;42612;52.232;7.560;2023-07-09T05:25:35;7.80;;;4.60;;
56728;SDS011;42612;52.232;7.560;2023-07-09T05:28:02;7.40;;;4.60;;
56728;SDS011;42612;52.232;7.560;2023-07-09T05:30:28;6.03;;;4.32;;
56728;SDS011;42612;52.232;7.560;2023-07-09T05:32:54;5.50;;;4.30;;
56728;SDS011;42612;52.232;7.560;2023-07-09T05:35:22;7.20;;;4.53;;
56728;SDS011;42612;52.232;7.560;2023-07-09T05:37:50;4.93;;;4.40;;
56728;SDS011;42612;52.232;7.560;2023-07-09T05:40:17;5.22;;;4.72;;
56728;SDS011;42612;52.232;7.560;2023-07-09T05:42:43;5.35;;;4.13;;
56728;SDS011;42612;52.232;7.560;2023-07-09T05:45:09;8.00;;;4.78;;
56728;SDS011;42612;52.232;7.560;2023-07-09T05:47:36;5.15;;;4.38;;
56728;SDS011;42612;52.232;7.560;2023-07-09T05:50:01;4.97;;;3.92;;
56728;SDS011;42612;52.232;7.560;2023-07-09T05:52:28;5.35;;;4.43;;
56728;SDS011;42612;52.232;7.560;2023-07-09T05:54:54;5.10;;;3.97;;
56728;SDS011;42612;52.232;7.560;2023-07-09T05:57:21;5.30;;;4.17;;
56728;SDS011;42612;52.232;7.560;2023-07-09T05:59:46;5.35;;;4.63;;
56728;SDS011;42612;52.232;7.560;2023-07-09T06:02:14;5.10;;;4.57;;
56728;SDS011;42612;52.232;7.560;2023-07-09T06:04:42;4.88;;;4.28;;
56728;SDS011;42612;52.232;7.560;2023-07-09T06:07:11;5.35;;;3.97;;
56728;SDS011;42612;52.232;7.560;2023-07-09T06:09:39;5.00;;;4.15;;
56728;SDS011;42612;52.232;7.560;2023-07-09T06:12:05;9.00;;;4.40;;
56728;SDS011;42612;52.232;7.560;2023-07-09T06:14:31;5.78;;;4.30;;
56728;SDS011;42612;52.232;7.560;2023-07-09T06:16:58;7.53;;;4.75;;
56728;SDS011;42612;52.232;7.560;2023-07-09T06:19:25;6.28;;;4.93;;
56728;SDS011;42612;52.232;7.560;2023-07-09T06:21:51;6.82;;;4.53;;
56728;SDS011;42612;52.232;7.560;2023-07-09T06:24:17;7.40;;;5.20;;
56728;SDS011;42612;52.232;7.560;2023-07-09T06:26:43;6.20;;;5.03;;
56728;SDS011;42612;52.232;7.560;2023-07-09T06:29:08;7.10;;;4.25;;
56728;SDS011;42612;52.232;7.560;2023-07-09T06:31:34;6.72;;;4.80;;
56728;SDS011;42612;52.232;7.560;2023-07-09T06:34:02;7.22;;;4.53;;
56728;SDS011;42612;52.232;7.560;2023-07-09T06:36:28;8.25;;;4.35;;
56728;SDS011;42612;52.232;7.560;2023-07-09T06:38:54;5.17;;;4.23;;
56728;SDS011;42612;52.232;7.560;2023-07-09T06:41:20;7.03;;;4.63;;
56728;SDS011;42612;52.232;7.560;2023-07-09T06:43:45;6.03;;;4.32;;
56728;SDS011;42612;52.232;7.560;2023-07-09T06:46:12;5.82;;;5.18;;
56728;SDS011;42612;52.232;7.560;2023-07-09T06:48:39;5.18;;;4.15;;
56728;SDS011;42612;52.232;7.560;2023-07-09T06:51:05;7.30;;;4.57;;
56728;SDS011;42612;52.232;7.560;2023-07-09T06:53:31;7.05;;;4.22;;
56728;SDS011;42612;52.232;7.560;2023-07-09T06:55:58;5.25;;;4.50;;
56728;SDS011;42612;52.232;7.560;2023-07-09T06:58:25;5.53;;;4.00;;
56728;SDS011;42612;52.232;7.560;2023-07-09T07:00:53;4.28;;;3.88;;
56728;SDS011;42612;52.232;7.560;2023-07-09T07:05:47;4.82;;;3.90;;
56728;SDS011;42612;52.232;7.560;2023-07-09T07:08:15;8.55;;;3.55;;
56728;SDS011;42612;52.232;7.560;2023-07-09T07:10:43;5.85;;;4.10;;
56728;SDS011;42612;52.232;7.560;2023-07-09T07:13:11;5.03;;;4.20;;
56728;SDS011;42612;52.232;7.560;2023-07-09T07:15:37;7.65;;;4.32;;
56728;SDS011;42612;52.232;7.560;2023-07-09T07:18:04;4.72;;;4.10;;
56728;SDS011;42612;52.232;7.560;2023-07-09T07:20:30;5.45;;;4.07;;
56728;SDS011;42612;52.232;7.560;2023-07-09T07:22:56;5.78;;;4.03;;
56728;SDS011;42612;52.232;7.560;2023-07-09T07:25:23;6.68;;;4.32;;
56728;SDS011;42612;52.232;7.560;2023-07-09T07:27:49;4.45;;;3.72;;
56728;SDS011;42612;52.232;7.560;2023-07-09T07:30:15;5.82;;;3.47;;
56728;SDS011;42612;52.232;7.560;2023-07-09T07:32:43;5.38;;;3.92;;
56728;SDS011;42612;52.232;7.560;2023-07-09T07:35:10;6.97;;;4.07;;
56728;SDS011;42612;52.232;7.560;2023-07-09T07:37:38;4.30;;;3.70;;
56728;SDS011;42612;52.232;7.560;2023-07-09T07:40:07;7.20;;;3.95;;
56728;SDS011;42612;52.232;7.560;2023-07-09T07:42:34;4.10;;;3.58;;
56728;SDS011;42612;52.232;7.560;2023-07-09T07:44:59;9.43;;;4.25;;
56728;SDS011;42612;52.232;7.560;2023-07-09T07:47:25;9.27;;;4.45;;
56728;SDS011;42612;52.232;7.560;2023-07-09T07:49:52;4.82;;;3.83;;
56728;SDS011;42612;52.232;7.560;2023-07-09T07:52:18;5.72;;;4.00;;
56728;SDS011;42612;52.232;7.560;2023-07-09T07:54:44;4.80;;;3.83;;
56728;SDS011;42612;52.232;7.560;2023-07-09T07:57:10;7.22;;;4.40;;
56728;SDS011;42612;52.232;7.560;2023-07-09T07:59:36;6.25;;;3.97;;
56728;SDS011;42612;52.232;7.560;2023-07-09T08:02:03;19.17;;;17.00;;
56728;SDS011;42612;52.232;7.560;2023-07-09T08:04:31;15.50;;;13.68;;
56728;SDS011;42612;52.232;7.560;2023-07-09T08:06:57;8.27;;;5.50;;
56728;SDS011;42612;52.232;7.560;2023-07-09T08:09:24;8.33;;;4.97;;
56728;SDS011;42612;52.232;7.560;2023-07-09T08:11:50;6.13;;;4.17;;
56728;SDS011;42612;52.232;7.560;2023-07-09T08:14:15;5.22;;;3.95;;
56728;SDS011;42612;52.232;7.560;2023-07-09T08:16:41;5.13;;;4.25;;
56728;SDS011;42612;52.232;7.560;2023-07-09T08:19:07;4.37;;;3.80;;
56728;SDS011;42612;52.232;7.560;2023-07-09T08:21:33;10.97;;;7.73;;
56728;SDS011;42612;52.232;7.560;2023-07-09T08:23:58;5.83;;;4.00;;
56728;SDS011;42612;52.232;7.560;2023-07-09T08:26:24;4.83;;;4.17;;
56728;SDS011;42612;52.232;7.560;2023-07-09T08:28:50;11.20;;;4.27;;
56728;SDS011;42612;52.232;7.560;2023-07-09T08:31:17;5.80;;;3.90;;
56728;SDS011;42612;52.232;7.560;2023-07-09T08:33:42;6.63;;;3.90;;
56728;SDS011;42612;52.232;7.560;2023-07-09T08:36:08;7.03;;;4.27;;
56728;SDS011;42612;52.232;7.560;2023-07-09T08:38:34;5.73;;;3.63;;
56728;SDS011;42612;52.232;7.560;2023-07-09T08:52:30;5.82;;;4.00;;
56728;SDS011;42612;52.232;7.560;2023-07-09T08:55:17;3.95;;;3.47;;
56728;SDS011;42612;52.232;7.560;2023-07-09T08:57:55;5.80;;;3.92;;
56728;SDS011;42612;52.232;7.560;2023-07-09T09:00:36;4.72;;;3.72;;
56728;SDS011;42612;52.232;7.560;2023-07-09T09:04:02;6.03;;;3.97;;
56728;SDS011;42612;52.232;7.560;2023-07-09T09:06:14;5.82;;;4.03;;
56728;SDS011;42612;52.232;7.560;2023-07-09T09:11:42;4.05;;;3.65;;
56728;SDS011;42612;52.232;7.560;2023-07-09T09:14:29;6.68;;;3.80;;
56728;SDS011;42612;52.232;7.560;2023-07-09T09:17:09;6.43;;;4.10;;
56728;SDS011;42612;52.232;7.560;2023-07-09T09:19:59;6.90;;;3.65;;
56728;SDS011;42612;52.232;7.560;2023-07-09T09:23:18;4.70;;;3.30;;
56728;SDS011;42612;52.232;7.560;2023-07-09T09:25:34;4.88;;;3.53;;
56728;SDS011;42612;52.232;7.560;2023-07-09T09:28:05;5.20;;;3.90;;
56728;SDS011;42612;52.232;7.560;2023-07-09T09:30:33;5.35;;;3.67;;
56728;SDS011;42612;52.232;7.560;2023-07-09T09:35:28;7.28;;;4.07;;
56728;SDS011;42612;52.232;7.560;2023-07-09T09:37:58;5.63;;;4.18;;
56728;SDS011;42612;52.232;7.560;2023-07-09T09:40:26;5.20;;;3.63;;
56728;SDS011;42612;52.232;7.560;2023-07-09T09:42:57;5.75;;;3.85;;
56728;SDS011;42612;52.232;7.560;2023-07-09T09:45:37;3.75;;;3.33;;
56728;SDS011;42612;52.232;7.560;2023-07-09T09:48:20;4.63;;;3.50;;
56728;SDS011;42612;52.232;7.560;2023-07-09T09:50:54;5.95;;;4.00;;
56728;SDS011;42612;52.232;7.560;2023-07-09T09:53:26;4.20;;;3.70;;
56728;SDS011;42612;52.232;7.560;2023-07-09T09:55:55;5.88;;;3.70;;
56728;SDS011;42612;52.232;7.560;2023-07-09T09:58:28;4.38;;;3.58;;
56728;SDS011;42612;52.232;7.560;2023-07-09T10:00:56;8.25;;;3.72;;
56728;SDS011;42612;52.232;7.560;2023-07-09T10:03:35;5.78;;;4.18;;
56728;SDS011;42612;52.232;7.560;2023-07-09T10:11:23;6.30;;;3.40;;
56728;SDS011;42612;52.232;7.560;2023-07-09T10:14:04;3.95;;;3.13;;
56728;SDS011;42612;52.232;7.560;2023-07-09T10:17:15;5.65;;;3.75;;
56728;SDS011;42612;52.232;7.560;2023-07-09T10:25:29;4.55;;;3.47;;
56728;SDS011;42612;52.232;7.560;2023-07-09T10:28:16;4.28;;;3.42;;
56728;SDS011;42612;52.232;7.560;2023-07-09T10:31:43;3.53;;;2.85;;
56728;SDS011;42612;52.232;7.560;2023-07-09T10:34:28;4.60;;;3.08;;
56728;SDS011;42612;52.232;7.560;2023-07-09T10:40:13;6.07;;;2.78;;
56728;SDS011;42612;52.232;7.560;2023-07-09T10:45:16;4.38;;;2.85;;
56728;SDS011;42612;52.232;7.560;2023-07-09T10:47:59;4.10;;;3.05;;
56728;SDS011;42612;52.232;7.560;2023-07-09T10:50:41;5.93;;;2.70;;
56728;SDS011;42612;52.232;7.560;2023-07-09T10:53:12;4.10;;;3.40;;
56728;SDS011;42612;52.232;7.560;2023-07-09T11:01:55;5.65;;;3.10;;
56728;SDS011;42612;52.232;7.560;2023-07-09T11:04:37;3.05;;;2.47;;
56728;SDS011;42612;52.232;7.560;2023-07-09T11:07:12;4.32;;;2.67;;
56728;SDS011;42612;52.232;7.560;2023-07-09T11:09:43;3.17;;;2.42;;
56728;SDS011;42612;52.232;7.560;2023-07-09T11:12:16;3.55;;;2.58;;
56728;SDS011;42612;52.232;7.560;2023-07-09T11:17:25;5.95;;;2.78;;
56728;SDS011;42612;52.232;7.560;2023-07-09T11:19:54;3.80;;;2.38;;
56728;SDS011;42612;52.232;7.560;2023-07-09T11:22:35;3.75;;;2.28;;
56728;SDS011;42612;52.232;7.560;2023-07-09T11:25:07;3.78;;;2.20;;
56728;SDS011;42612;52.232;7.560;2023-07-09T11:27:52;4.22;;;2.53;;
56728;SDS011;42612;52.232;7.560;2023-07-09T11:30:28;4.55;;;2.40;;
56728;SDS011;42612;52.232;7.560;2023-07-09T11:35:28;3.28;;;1.95;;
56728;SDS011;42612;52.232;7.560;2023-07-09T11:38:21;3.55;;;2.17;;
56728;SDS011;42612;52.232;7.560;2023-07-09T11:40:50;3.03;;;2.42;;
56728;SDS011;42612;52.232;7.560;2023-07-09T11:43:51;3.22;;;2.25;;
56728;SDS011;42612;52.232;7.560;2023-07-09T11:46:14;2.92;;;2.35;;
56728;SDS011;42612;52.232;7.560;2023-07-09T11:48:46;5.57;;;2.42;;
56728;SDS011;42612;52.232;7.560;2023-07-09T11:51:15;4.85;;;2.40;;
56728;SDS011;42612;52.232;7.560;2023-07-09T11:53:50;5.35;;;2.50;;
56728;SDS011;42612;52.232;7.560;2023-07-09T11:56:22;2.92;;;2.63;;
56728;SDS011;42612;52.232;7.560;2023-07-09T11:58:51;3.55;;;2.42;;
56728;SDS011;42612;52.232;7.560;2023-07-09T12:01:21;6.15;;;2.55;;
56728;SDS011;42612;52.232;7.560;2023-07-09T12:03:51;5.32;;;2.42;;
56728;SDS011;42612;52.232;7.560;2023-07-09T12:06:24;2.90;;;1.98;;
56728;SDS011;42612;52.232;7.560;2023-07-09T12:08:54;3.33;;;2.22;;
56728;SDS011;42612;52.232;7.560;2023-07-09T12:11:30;3.35;;;2.20;;
56728;SDS011;42612;52.232;7.560;2023-07-09T12:14:03;3.42;;;1.95;;
56728;SDS011;42612;52.232;7.560;2023-07-09T12:16:38;2.92;;;2.00;;
56728;SDS011;42612;52.232;7.560;2023-07-09T12:19:07;3.95;;;2.13;;
56728;SDS011;42612;52.232;7.560;2023-07-09T12:21:56;2.45;;;2.25;;
56728;SDS011;42612;52.232;7.560;2023-07-09T12:24:27;3.97;;;2.40;;
56728;SDS011;42612;52.232;7.560;2023-07-09T12:27:14;4.22;;;2.22;;
56728;SDS011;42612;52.232;7.560;2023-07-09T12:29:46;7.95;;;2.42;;
56728;SDS011;42612;52.232;7.560;2023-07-09T12:32:13;4.43;;;2.08;;
56728;SDS011;42612;52.232;7.560;2023-07-09T12:34:41;2.25;;;1.65;;
56728;SDS011;42612;52.232;7.560;2023-07-09T12:37:09;3.30;;;2.55;;
56728;SDS011;42612;52.232;7.560;2023-07-09T12:39:39;3.17;;;2.03;;
56728;SDS011;42612;52.232;7.560;2023-07-09T12:42:05;5.45;;;2.30;;
56728;SDS011;42612;52.232;7.560;2023-07-09T12:44:57;2.90;;;1.92;;
56728;SDS011;42612;52.232;7.560;2023-07-09T12:47:23;5.25;;;1.60;;
56728;SDS011;42612;52.232;7.560;2023-07-09T12:49:50;4.18;;;1.98;;
56728;SDS011;42612;52.232;7.560;2023-07-09T12:52:21;5.07;;;2.30;;
56728;SDS011;42612;52.232;7.560;2023-07-09T12:54:59;2.92;;;1.90;;
56728;SDS011;42612;52.232;7.560;2023-07-09T12:57:27;2.88;;;1.63;;
56728;SDS011;42612;52.232;7.560;2023-07-09T12:59:55;2.25;;;1.88;;
56728;SDS011;42612;52.232;7.560;2023-07-09T13:02:25;3.20;;;2.10;;
56728;SDS011;42612;52.232;7.560;2023-07-09T13:05:03;4.18;;;1.98;;
56728;SDS011;42612;52.232;7.560;2023-07-09T13:07:39;2.80;;;2.13;;
56728;SDS011;42612;52.232;7.560;2023-07-09T13:10:19;5.13;;;2.15;;
56728;SDS011;42612;52.232;7.560;2023-07-09T13:12:50;3.85;;;2.00;;
56728;SDS011;42612;52.232;7.560;2023-07-09T13:15:29;4.32;;;2.58;;
56728;SDS011;42612;52.232;7.560;2023-07-09T13:18:04;4.57;;;2.70;;
56728;SDS011;42612;52.232;7.560;2023-07-09T13:20:32;4.50;;;2.33;;
56728;SDS011;42612;52.232;7.560;2023-07-09T13:23:07;2.78;;;1.98;;
56728;SDS011;42612;52.232;7.560;2023-07-09T13:25:42;2.25;;;2.03;;
56728;SDS011;42612;52.232;7.560;2023-07-09T13:28:30;3.38;;;2.10;;
56728;SDS011;42612;52.232;7.560;2023-07-09T13:30:57;5.00;;;2.28;;
56728;SDS011;42612;52.232;7.560;2023-07-09T13:33:26;3.33;;;2.30;;
56728;SDS011;42612;52.232;7.560;2023-07-09T13:35:52;2.75;;;2.53;;
56728;SDS011;42612;52.232;7.560;2023-07-09T13:38:19;4.22;;;2.47;;
56728;SDS011;42612;52.232;7.560;2023-07-09T13:40:54;5.00;;;2.60;;
56728;SDS011;42612;52.232;7.560;2023-07-09T13:43:26;2.75;;;2.40;;
56728;SDS011;42612;52.232;7.560;2023-07-09T13:45:55;5.80;;;2.40;;
56728;SDS011;42612;52.232;7.560;2023-07-09T13:48:22;5.40;;;2.13;;
56728;SDS011;42612;52.232;7.560;2023-07-09T13:50:50;2.95;;;2.40;;
56728;SDS011;42612;52.232;7.560;2023-07-09T13:53:19;4.60;;;2.22;;
56728;SDS011;42612;52.232;7.560;2023-07-09T13:55:48;2.65;;;2.40;;
56728;SDS011;42612;52.232;7.560;2023-07-09T13:58:15;4.68;;;2.20;;
56728;SDS011;42612;52.232;7.560;2023-07-09T14:00:44;4.53;;;2.60;;
56728;SDS011;42612;52.232;7.560;2023-07-09T14:03:19;3.80;;;2.78;;
56728;SDS011;42612;52.232;7.560;2023-07-09T14:05:48;6.00;;;2.78;;
56728;SDS011;42612;52.232;7.560;2023-07-09T14:08:14;3.00;;;1.90;;
56728;SDS011;42612;52.232;7.560;2023-07-09T14:10:41;3.63;;;2.13;;
56728;SDS011;42612;52.232;7.560;2023-07-09T14:13:12;3.78;;;2.15;;
56728;SDS011;42612;52.232;7.560;2023-07-09T14:15:43;3.70;;;2.67;;
56728;SDS011;42612;52.232;7.560;2023-07-09T14:20:41;2.60;;;2.13;;
56728;SDS011;42612;52.232;7.560;2023-07-09T14:23:11;7.47;;;2.22;;
56728;SDS011;42612;52.232;7.560;2023-07-09T14:25:42;2.90;;;2.50;;
56728;SDS011;42612;52.232;7.560;2023-07-09T14:28:19;3.45;;;2.63;;
56728;SDS011;42612;52.232;7.560;2023-07-09T14:30:46;5.72;;;2.47;;
56728;SDS011;42612;52.232;7.560;2023-07-09T14:33:16;5.68;;;2.67;;
56728;SDS011;42612;52.232;7.560;2023-07-09T14:35:45;3.25;;;2.33;;
56728;SDS011;42612;52.232;7.560;2023-07-09T14:38:15;4.28;;;3.05;;
56728;SDS011;42612;52.232;7.560;2023-07-09T14:40:45;6.63;;;2.55;;
56728;SDS011;42612;52.232;7.560;2023-07-09T14:43:13;3.72;;;2.83;;
56728;SDS011;42612;52.232;7.560;2023-07-09T14:45:40;6.70;;;2.90;;
56728;SDS011;42612;52.232;7.560;2023-07-09T14:48:15;3.30;;;2.65;;
56728;SDS011;42612;52.232;7.560;2023-07-09T14:50:43;3.58;;;2.40;;
56728;SDS011;42612;52.232;7.560;2023-07-09T14:53:31;3.28;;;2.50;;
56728;SDS011;42612;52.232;7.560;2023-07-09T14:55:56;4.40;;;2.28;;
56728;SDS011;42612;52.232;7.560;2023-07-09T14:58:22;4.50;;;2.60;;
56728;SDS011;42612;52.232;7.560;2023-07-09T15:00:49;4.32;;;2.60;;
56728;SDS011;42612;52.232;7.560;2023-07-09T15:03:20;3.47;;;2.55;;
56728;SDS011;42612;52.232;7.560;2023-07-09T15:05:48;3.58;;;2.97;;
56728;SDS011;42612;52.232;7.560;2023-07-09T15:08:16;4.82;;;2.67;;
56728;SDS011;42612;52.232;7.560;2023-07-09T15:10:48;3.03;;;2.40;;
56728;SDS011;42612;52.232;7.560;2023-07-09T15:13:16;3.55;;;2.53;;
56728;SDS011;42612;52.232;7.560;2023-07-09T15:15:45;6.53;;;2.55;;
56728;SDS011;42612;52.232;7.560;2023-07-09T15:18:11;5.75;;;2.33;;
56728;SDS011;42612;52.232;7.560;2023-07-09T15:20:41;7.15;;;2.65;;
56728;SDS011;42612;52.232;7.560;2023-07-09T15:23:13;4.68;;;2.17;;
56728;SDS011;42612;52.232;7.560;2023-07-09T15:25:39;6.57;;;2.60;;
56728;SDS011;42612;52.232;7.560;2023-07-09T15:28:04;5.90;;;2.63;;
56728;SDS011;42612;52.232;7.560;2023-07-09T15:30:30;3.60;;;2.53;;
56728;SDS011;42612;52.232;7.560;2023-07-09T15:32:57;2.95;;;2.40;;
56728;SDS011;42612;52.232;7.560;2023-07-09T15:35:26;3.58;;;2.42;;
56728;SDS011;42612;52.232;7.560;2023-07-09T15:37:58;3.97;;;2.55;;
56728;SDS011;42612;52.232;7.560;2023-07-09T15:40:27;5.43;;;3.47;;
56728;SDS011;42612;52.232;7.560;2023-07-09T15:42:57;7.55;;;3.25;;
56728;SDS011;42612;52.232;7.560;2023-07-09T15:45:30;3.80;;;2.65;;
56728;SDS011;42612;52.232;7.560;2023-07-09T15:47:56;4.33;;;2.70;;
56728;SDS011;42612;52.232;7.560;2023-07-09T15:50:23;3.05;;;2.53;;
56728;SDS011;42612;52.232;7.560;2023-07-09T15:52:51;7.22;;;2.70;;
56728;SDS011;42612;52.232;7.560;2023-07-09T15:55:19;5.55;;;3.08;;
56728;SDS011;42612;52.232;7.560;2023-07-09T15:57:49;5.75;;;2.78;;
56728;SDS011;42612;52.232;7.560;2023-07-09T16:00:19;5.57;;;3.40;;
56728;SDS011;42612;52.232;7.560;2023-07-09T16:02:49;3.70;;;2.83;;
56728;SDS011;42612;52.232;7.560;2023-07-09T16:05:20;4.88;;;2.70;;
56728;SDS011;42612;52.232;7.560;2023-07-09T16:07:52;7.47;;;3.00;;
56728;SDS011;42612;52.232;7.560;2023-07-09T16:10:22;2.85;;;2.40;;